Terminal Aerodrome Forecast
Issued by NWS Nashville, TN

Home | Current Version | Previous Version | Text Only | Print | Product List | Glossary On
Versions: 1 2 3 4 5 6 7 8 9 10 11 12 13 14 15 16
222
FTUS44 KOHX 281130
TAFCSV
TAF
KCSV 281130Z 2812/0112 19009G18KT P6SM BKN007 OVC012
     FM281700 18009G16KT 3SM TSRA OVC009CB
     FM282200 19013G19KT 4SM BR VCSH OVC007=

USA.gov is the U.S. government's official web portal to all federal, state and local government web resources and services.